sensor_id;sensor_type;location;lat;lon;timestamp;pressure;altitude;pressure_sealevel;temperature;humidity
71948;BME280;63257;55.082;38.772;2023-03-26T00:01:43;98576.84;;;9.39;88.91
71948;BME280;63257;55.082;38.772;2023-03-26T00:04:11;98590.91;;;9.50;88.15
71948;BME280;63257;55.082;38.772;2023-03-26T00:06:37;98580.81;;;9.44;87.66
71948;BME280;63257;55.082;38.772;2023-03-26T00:09:08;98592.41;;;9.42;87.86
71948;BME280;63257;55.082;38.772;2023-03-26T00:11:35;98567.56;;;9.33;87.94
71948;BME280;63257;55.082;38.772;2023-03-26T00:14:00;98581.56;;;9.33;87.70
71948;BME280;63257;55.082;38.772;2023-03-26T00:16:29;98572.94;;;9.31;87.67
71948;BME280;63257;55.082;38.772;2023-03-26T00:18:56;98578.63;;;9.25;87.65
71948;BME280;63257;55.082;38.772;2023-03-26T00:21:24;98589.06;;;9.27;87.43
71948;BME280;63257;55.082;38.772;2023-03-26T00:23:54;98572.22;;;9.16;88.30
71948;BME280;63257;55.082;38.772;2023-03-26T00:26:21;98573.38;;;9.12;88.23
71948;BME280;63257;55.082;38.772;2023-03-26T00:28:48;98575.81;;;9.15;88.31
71948;BME280;63257;55.082;38.772;2023-03-26T00:31:16;98560.75;;;9.05;88.30
71948;BME280;63257;55.082;38.772;2023-03-26T00:33:42;98562.97;;;9.11;88.45
71948;BME280;63257;55.082;38.772;2023-03-26T00:36:13;98566.31;;;9.13;88.32
71948;BME280;63257;55.082;38.772;2023-03-26T00:38:40;98552.84;;;9.05;88.29
71948;BME280;63257;55.082;38.772;2023-03-26T00:41:10;98551.50;;;8.99;88.56
71948;BME280;63257;55.082;38.772;2023-03-26T00:43:43;98553.59;;;8.94;88.66
71948;BME280;63257;55.082;38.772;2023-03-26T00:46:11;98570.56;;;9.03;88.79
71948;BME280;63257;55.082;38.772;2023-03-26T00:48:38;98565.28;;;9.03;88.38
71948;BME280;63257;55.082;38.772;2023-03-26T00:51:08;98534.97;;;8.84;88.48
71948;BME280;63257;55.082;38.772;2023-03-26T00:53:34;98554.34;;;8.96;88.47
71948;BME280;63257;55.082;38.772;2023-03-26T00:56:05;98556.00;;;8.97;88.95
71948;BME280;63257;55.082;38.772;2023-03-26T00:58:31;98560.13;;;8.88;89.10
71948;BME280;63257;55.082;38.772;2023-03-26T01:01:00;98552.22;;;8.88;88.87
71948;BME280;63257;55.082;38.772;2023-03-26T01:03:30;98550.63;;;8.86;89.07
71948;BME280;63257;55.082;38.772;2023-03-26T01:06:03;98544.53;;;8.85;88.66
71948;BME280;63257;55.082;38.772;2023-03-26T01:08:42;98548.13;;;8.84;88.63
71948;BME280;63257;55.082;38.772;2023-03-26T01:11:19;98551.56;;;8.85;88.83
71948;BME280;63257;55.082;38.772;2023-03-26T01:14:19;98555.91;;;8.86;88.73
71948;BME280;63257;55.082;38.772;2023-03-26T01:16:52;98552.84;;;8.79;88.85
71948;BME280;63257;55.082;38.772;2023-03-26T01:22:07;98545.28;;;8.74;88.95
71948;BME280;63257;55.082;38.772;2023-03-26T01:24:37;98558.22;;;8.77;88.87
71948;BME280;63257;55.082;38.772;2023-03-26T01:43:31;98526.84;;;8.87;88.16
71948;BME280;63257;55.082;38.772;2023-03-26T01:46:04;98535.72;;;8.86;88.26
71948;BME280;63257;55.082;38.772;2023-03-26T01:48:37;98517.28;;;8.86;88.42
71948;BME280;63257;55.082;38.772;2023-03-26T01:51:04;98487.72;;;8.70;87.49
71948;BME280;63257;55.082;38.772;2023-03-26T01:53:34;98515.16;;;8.91;87.32
71948;BME280;63257;55.082;38.772;2023-03-26T02:02:11;98529.38;;;9.02;87.27
71948;BME280;63257;55.082;38.772;2023-03-26T02:07:13;98514.22;;;8.92;87.24
71948;BME280;63257;55.082;38.772;2023-03-26T02:09:56;98533.78;;;9.01;87.32
71948;BME280;63257;55.082;38.772;2023-03-26T02:12:24;98521.38;;;9.03;86.90
71948;BME280;63257;55.082;38.772;2023-03-26T02:14:51;98518.75;;;9.03;86.93
71948;BME280;63257;55.082;38.772;2023-03-26T02:17:20;98508.34;;;9.02;86.75
71948;BME280;63257;55.082;38.772;2023-03-26T02:19:49;98509.06;;;9.04;86.78
71948;BME280;63257;55.082;38.772;2023-03-26T02:22:16;98519.38;;;9.07;86.25
71948;BME280;63257;55.082;38.772;2023-03-26T02:24:44;98505.47;;;9.05;86.58
71948;BME280;63257;55.082;38.772;2023-03-26T02:27:10;98494.31;;;9.01;86.22
71948;BME280;63257;55.082;38.772;2023-03-26T02:29:39;98508.53;;;9.11;85.83
71948;BME280;63257;55.082;38.772;2023-03-26T02:32:09;98512.84;;;9.12;85.95
71948;BME280;63257;55.082;38.772;2023-03-26T02:34:41;98496.00;;;9.02;85.93
71948;BME280;63257;55.082;38.772;2023-03-26T02:37:08;98495.16;;;9.02;86.01
71948;BME280;63257;55.082;38.772;2023-03-26T02:39:35;98508.84;;;9.07;86.27
71948;BME280;63257;55.082;38.772;2023-03-26T02:42:09;98486.94;;;9.06;85.73
71948;BME280;63257;55.082;38.772;2023-03-26T02:44:42;98486.88;;;8.95;85.50
71948;BME280;63257;55.082;38.772;2023-03-26T02:47:29;98495.59;;;8.95;85.06
71948;BME280;63257;55.082;38.772;2023-03-26T02:50:14;98482.97;;;8.88;85.18
71948;BME280;63257;55.082;38.772;2023-03-26T02:52:56;98466.59;;;8.71;85.69
71948;BME280;63257;55.082;38.772;2023-03-26T02:55:22;98485.09;;;8.82;85.11
71948;BME280;63257;55.082;38.772;2023-03-26T02:57:50;98490.97;;;8.73;85.73
71948;BME280;63257;55.082;38.772;2023-03-26T03:00:22;98485.50;;;8.76;85.07
71948;BME280;63257;55.082;38.772;2023-03-26T03:02:53;98472.66;;;8.72;85.28
71948;BME280;63257;55.082;38.772;2023-03-26T03:05:31;98479.63;;;8.73;85.21
71948;BME280;63257;55.082;38.772;2023-03-26T03:08:22;98472.78;;;8.70;84.92
71948;BME280;63257;55.082;38.772;2023-03-26T03:11:09;98485.50;;;8.76;85.38
71948;BME280;63257;55.082;38.772;2023-03-26T03:13:43;98475.94;;;8.75;84.67
71948;BME280;63257;55.082;38.772;2023-03-26T03:16:09;98477.72;;;8.75;84.93
71948;BME280;63257;55.082;38.772;2023-03-26T03:18:35;98469.41;;;8.68;85.24
71948;BME280;63257;55.082;38.772;2023-03-26T03:21:03;98473.63;;;8.71;85.36
71948;BME280;63257;55.082;38.772;2023-03-26T03:23:28;98461.72;;;8.65;85.32
71948;BME280;63257;55.082;38.772;2023-03-26T03:26:11;98464.34;;;8.65;85.58
71948;BME280;63257;55.082;38.772;2023-03-26T03:28:38;98447.66;;;8.53;85.83
71948;BME280;63257;55.082;38.772;2023-03-26T03:31:05;98456.16;;;8.57;85.85
71948;BME280;63257;55.082;38.772;2023-03-26T03:33:34;98433.75;;;8.51;85.76
71948;BME280;63257;55.082;38.772;2023-03-26T03:36:00;98455.00;;;8.61;85.29
71948;BME280;63257;55.082;38.772;2023-03-26T03:38:26;98455.31;;;8.56;85.17
71948;BME280;63257;55.082;38.772;2023-03-26T03:40:53;98452.25;;;8.62;85.58
71948;BME280;63257;55.082;38.772;2023-03-26T03:43:22;98454.16;;;8.60;85.31
71948;BME280;63257;55.082;38.772;2023-03-26T03:46:02;98441.97;;;8.46;85.48
71948;BME280;63257;55.082;38.772;2023-03-26T03:48:57;98452.38;;;8.61;85.42
71948;BME280;63257;55.082;38.772;2023-03-26T03:51:31;98452.16;;;8.64;85.34
71948;BME280;63257;55.082;38.772;2023-03-26T03:54:00;98446.16;;;8.62;85.07
71948;BME280;63257;55.082;38.772;2023-03-26T03:56:45;98431.66;;;8.56;84.85
71948;BME280;63257;55.082;38.772;2023-03-26T03:59:40;98426.63;;;8.53;85.11
71948;BME280;63257;55.082;38.772;2023-03-26T04:02:08;98441.72;;;8.62;85.10
71948;BME280;63257;55.082;38.772;2023-03-26T04:04:45;98440.56;;;8.66;85.30
71948;BME280;63257;55.082;38.772;2023-03-26T04:07:17;98437.94;;;8.66;84.68
71948;BME280;63257;55.082;38.772;2023-03-26T04:10:02;98433.03;;;8.62;84.67
71948;BME280;63257;55.082;38.772;2023-03-26T04:12:47;98404.38;;;8.44;84.51
71948;BME280;63257;55.082;38.772;2023-03-26T04:15:15;98417.97;;;8.51;85.46
71948;BME280;63257;55.082;38.772;2023-03-26T04:17:43;98419.44;;;8.55;84.85
71948;BME280;63257;55.082;38.772;2023-03-26T04:20:12;98421.34;;;8.66;84.69
71948;BME280;63257;55.082;38.772;2023-03-26T04:22:44;98420.81;;;8.61;84.28
71948;BME280;63257;55.082;38.772;2023-03-26T04:25:12;98425.75;;;8.65;84.56
71948;BME280;63257;55.082;38.772;2023-03-26T04:27:50;98399.25;;;8.56;84.40
71948;BME280;63257;55.082;38.772;2023-03-26T04:30:36;98410.06;;;8.64;84.27
71948;BME280;63257;55.082;38.772;2023-03-26T04:33:28;98402.81;;;8.68;84.37
71948;BME280;63257;55.082;38.772;2023-03-26T04:35:54;98397.56;;;8.68;84.18
71948;BME280;63257;55.082;38.772;2023-03-26T04:38:30;98391.34;;;8.69;83.97
71948;BME280;63257;55.082;38.772;2023-03-26T04:41:01;98386.31;;;8.65;84.33
71948;BME280;63257;55.082;38.772;2023-03-26T04:43:52;98392.75;;;8.61;83.49
71948;BME280;63257;55.082;38.772;2023-03-26T04:46:24;98371.47;;;8.52;83.68
71948;BME280;63257;55.082;38.772;2023-03-26T04:49:00;98383.03;;;8.62;83.66
71948;BME280;63257;55.082;38.772;2023-03-26T04:51:39;98390.59;;;8.66;83.80
71948;BME280;63257;55.082;38.772;2023-03-26T04:54:19;98381.78;;;8.68;83.84
71948;BME280;63257;55.082;38.772;2023-03-26T04:59:28;98370.13;;;8.59;83.59
71948;BME280;63257;55.082;38.772;2023-03-26T05:02:03;98388.94;;;8.65;83.78
71948;BME280;63257;55.082;38.772;2023-03-26T05:04:35;98382.94;;;8.63;83.60
71948;BME280;63257;55.082;38.772;2023-03-26T05:07:05;98389.88;;;8.64;83.75
71948;BME280;63257;55.082;38.772;2023-03-26T05:14:02;98385.38;;;8.54;83.97
71948;BME280;63257;55.082;38.772;2023-03-26T05:16:29;98369.38;;;8.57;84.55
71948;BME280;63257;55.082;38.772;2023-03-26T05:19:03;98371.88;;;8.58;84.47
71948;BME280;63257;55.082;38.772;2023-03-26T05:21:33;98354.75;;;8.40;84.08
71948;BME280;63257;55.082;38.772;2023-03-26T05:23:59;98382.41;;;8.58;84.23
71948;BME280;63257;55.082;38.772;2023-03-26T05:26:26;98386.00;;;8.57;83.73
71948;BME280;63257;55.082;38.772;2023-03-26T05:28:54;98358.84;;;8.44;84.06
71948;BME280;63257;55.082;38.772;2023-03-26T05:31:30;98373.59;;;8.46;83.95
71948;BME280;63257;55.082;38.772;2023-03-26T05:33:58;98382.72;;;8.41;84.34
71948;BME280;63257;55.082;38.772;2023-03-26T05:36:27;98360.22;;;8.24;84.13
71948;BME280;63257;55.082;38.772;2023-03-26T05:39:05;98366.97;;;8.41;84.42
71948;BME280;63257;55.082;38.772;2023-03-26T05:41:55;98369.59;;;8.54;83.96
71948;BME280;63257;55.082;38.772;2023-03-26T05:44:30;98367.06;;;8.52;83.85
71948;BME280;63257;55.082;38.772;2023-03-26T05:46:59;98358.44;;;8.37;84.52
71948;BME280;63257;55.082;38.772;2023-03-26T05:49:27;98365.59;;;8.48;84.47
71948;BME280;63257;55.082;38.772;2023-03-26T05:51:53;98360.97;;;8.52;84.63
71948;BME280;63257;55.082;38.772;2023-03-26T05:54:37;98334.66;;;8.39;84.52
71948;BME280;63257;55.082;38.772;2023-03-26T05:57:32;98352.13;;;8.53;84.37
71948;BME280;63257;55.082;38.772;2023-03-26T06:00:26;98361.06;;;8.50;84.26
71948;BME280;63257;55.082;38.772;2023-03-26T06:02:54;98346.16;;;8.51;84.46
71948;BME280;63257;55.082;38.772;2023-03-26T06:05:48;98346.56;;;8.57;84.29
71948;BME280;63257;55.082;38.772;2023-03-26T06:08:19;98326.06;;;8.49;84.43
71948;BME280;63257;55.082;38.772;2023-03-26T06:10:56;98343.06;;;8.70;84.24
71948;BME280;63257;55.082;38.772;2023-03-26T06:13:23;98338.50;;;8.72;83.77
71948;BME280;63257;55.082;38.772;2023-03-26T06:15:50;98345.00;;;8.79;83.86
71948;BME280;63257;55.082;38.772;2023-03-26T06:18:29;98343.97;;;8.81;85.24
71948;BME280;63257;55.082;38.772;2023-03-26T06:21:17;98344.91;;;8.80;85.22
71948;BME280;63257;55.082;38.772;2023-03-26T06:23:54;98337.22;;;8.77;85.61
71948;BME280;63257;55.082;38.772;2023-03-26T06:26:49;98341.78;;;8.75;84.81
71948;BME280;63257;55.082;38.772;2023-03-26T06:29:41;98340.50;;;8.68;85.46
71948;BME280;63257;55.082;38.772;2023-03-26T06:32:27;98336.06;;;8.81;84.98
71948;BME280;63257;55.082;38.772;2023-03-26T06:34:58;98311.38;;;8.71;84.97
71948;BME280;63257;55.082;38.772;2023-03-26T06:37:24;98331.72;;;8.93;84.27
71948;BME280;63257;55.082;38.772;2023-03-26T06:39:56;98320.03;;;8.97;83.85
71948;BME280;63257;55.082;38.772;2023-03-26T06:42:41;98334.53;;;9.03;84.65
71948;BME280;63257;55.082;38.772;2023-03-26T06:49:45;98315.97;;;8.80;84.41
71948;BME280;63257;55.082;38.772;2023-03-26T06:52:33;98325.44;;;8.83;85.31
71948;BME280;63257;55.082;38.772;2023-03-26T06:55:14;98328.28;;;8.80;85.46
71948;BME280;63257;55.082;38.772;2023-03-26T06:58:02;98320.63;;;8.77;85.56
71948;BME280;63257;55.082;38.772;2023-03-26T07:01:06;98310.69;;;8.80;85.59
71948;BME280;63257;55.082;38.772;2023-03-26T07:03:50;98313.84;;;8.86;85.45
71948;BME280;63257;55.082;38.772;2023-03-26T07:06:35;98313.41;;;8.92;85.08
71948;BME280;63257;55.082;38.772;2023-03-26T07:09:20;98320.44;;;8.91;84.52
71948;BME280;63257;55.082;38.772;2023-03-26T07:12:09;98312.34;;;8.94;84.76
71948;BME280;63257;55.082;38.772;2023-03-26T07:14:53;98285.03;;;8.84;84.56
71948;BME280;63257;55.082;38.772;2023-03-26T07:17:25;98297.63;;;8.92;83.97
71948;BME280;63257;55.082;38.772;2023-03-26T07:19:58;98308.56;;;8.98;84.46
71948;BME280;63257;55.082;38.772;2023-03-26T07:22:25;98309.28;;;9.00;84.40
71948;BME280;63257;55.082;38.772;2023-03-26T07:25:01;98290.06;;;9.11;84.55
71948;BME280;63257;55.082;38.772;2023-03-26T07:28:32;98311.28;;;9.21;83.41
71948;BME280;63257;55.082;38.772;2023-03-26T07:35:35;98296.31;;;9.22;83.66
71948;BME280;63257;55.082;38.772;2023-03-26T07:38:50;98302.19;;;9.25;82.64
71948;BME280;63257;55.082;38.772;2023-03-26T07:41:48;98307.63;;;9.35;83.03
71948;BME280;63257;55.082;38.772;2023-03-26T07:47:28;98304.44;;;9.43;82.25
71948;BME280;63257;55.082;38.772;2023-03-26T07:50:19;98306.94;;;9.44;82.10
71948;BME280;63257;55.082;38.772;2023-03-26T08:06:19;98306.28;;;9.29;83.19
71948;BME280;63257;55.082;38.772;2023-03-26T08:15:14;98296.75;;;9.40;83.26
71948;BME280;63257;55.082;38.772;2023-03-26T08:20:39;98286.31;;;9.38;82.79
71948;BME280;63257;55.082;38.772;2023-03-26T08:23:34;98280.22;;;9.38;83.25
71948;BME280;63257;55.082;38.772;2023-03-26T08:33:37;98271.81;;;9.32;81.82
71948;BME280;63257;55.082;38.772;2023-03-26T08:36:06;98263.44;;;9.27;82.38
71948;BME280;63257;55.082;38.772;2023-03-26T08:38:33;98268.81;;;9.26;82.41
71948;BME280;63257;55.082;38.772;2023-03-26T09:03:48;98223.78;;;9.87;81.40
71948;BME280;63257;55.082;38.772;2023-03-26T09:06:31;98221.88;;;10.12;80.14
71948;BME280;63257;55.082;38.772;2023-03-26T09:41:16;98233.16;;;11.13;76.39
71948;BME280;63257;55.082;38.772;2023-03-26T09:57:48;98215.44;;;11.46;73.21
71948;BME280;63257;55.082;38.772;2023-03-26T10:03:56;98221.69;;;11.45;73.77
71948;BME280;63257;55.082;38.772;2023-03-26T10:12:00;98221.03;;;11.31;74.12
71948;BME280;63257;55.082;38.772;2023-03-26T10:25:59;98199.31;;;11.07;74.81
71948;BME280;63257;55.082;38.772;2023-03-26T10:31:25;98204.59;;;11.07;74.13
71948;BME280;63257;55.082;38.772;2023-03-26T10:34:12;98223.34;;;11.03;74.65
71948;BME280;63257;55.082;38.772;2023-03-26T10:36:53;98206.38;;;10.85;74.82
71948;BME280;63257;55.082;38.772;2023-03-26T10:39:53;98198.75;;;10.71;74.83
71948;BME280;63257;55.082;38.772;2023-03-26T10:54:10;98217.19;;;10.82;74.48
71948;BME280;63257;55.082;38.772;2023-03-26T10:56:48;98208.66;;;10.78;75.20
71948;BME280;63257;55.082;38.772;2023-03-26T10:59:15;98204.41;;;10.66;75.49
71948;BME280;63257;55.082;38.772;2023-03-26T11:18:07;98204.88;;;10.71;75.05
71948;BME280;63257;55.082;38.772;2023-03-26T11:20:46;98207.38;;;10.73;74.88
71948;BME280;63257;55.082;38.772;2023-03-26T11:23:33;98202.88;;;10.63;75.22
71948;BME280;63257;55.082;38.772;2023-03-26T11:26:37;98194.63;;;10.57;76.01
71948;BME280;63257;55.082;38.772;2023-03-26T11:32:21;98196.25;;;10.58;75.62
71948;BME280;63257;55.082;38.772;2023-03-26T11:35:26;98195.81;;;10.52;75.83
71948;BME280;63257;55.082;38.772;2023-03-26T11:37:56;98186.09;;;10.53;76.00
71948;BME280;63257;55.082;38.772;2023-03-26T11:40:39;98178.19;;;10.53;76.17
71948;BME280;63257;55.082;38.772;2023-03-26T11:43:09;98175.94;;;10.48;76.45
71948;BME280;63257;55.082;38.772;2023-03-26T11:45:39;98176.38;;;10.53;76.74
71948;BME280;63257;55.082;38.772;2023-03-26T11:48:16;98162.66;;;10.39;76.51
71948;BME280;63257;55.082;38.772;2023-03-26T11:50:46;98172.44;;;10.48;77.36
71948;BME280;63257;55.082;38.772;2023-03-26T11:53:19;98186.94;;;10.53;76.76
71948;BME280;63257;55.082;38.772;2023-03-26T11:56:11;98174.13;;;10.49;77.27
71948;BME280;63257;55.082;38.772;2023-03-26T11:58:50;98186.13;;;10.42;77.07
71948;BME280;63257;55.082;38.772;2023-03-26T12:01:26;98179.19;;;10.29;77.48
71948;BME280;63257;55.082;38.772;2023-03-26T12:04:16;98172.69;;;10.33;77.45
71948;BME280;63257;55.082;38.772;2023-03-26T12:07:06;98174.03;;;10.28;78.01
71948;BME280;63257;55.082;38.772;2023-03-26T12:09:33;98162.28;;;10.21;79.14
71948;BME280;63257;55.082;38.772;2023-03-26T12:12:02;98176.44;;;10.19;79.87
71948;BME280;63257;55.082;38.772;2023-03-26T12:14:33;98175.84;;;10.16;78.63
71948;BME280;63257;55.082;38.772;2023-03-26T12:17:34;98182.44;;;10.22;79.92
71948;BME280;63257;55.082;38.772;2023-03-26T12:19:51;98172.59;;;10.24;79.40
71948;BME280;63257;55.082;38.772;2023-03-26T12:22:33;98138.13;;;9.93;78.31
71948;BME280;63257;55.082;38.772;2023-03-26T12:25:23;98171.44;;;10.05;78.92
71948;BME280;63257;55.082;38.772;2023-03-26T12:30:29;98172.53;;;9.91;79.12
71948;BME280;63257;55.082;38.772;2023-03-26T12:33:01;98161.50;;;9.97;79.26
71948;BME280;63257;55.082;38.772;2023-03-26T12:35:33;98180.66;;;9.99;78.99
71948;BME280;63257;55.082;38.772;2023-03-26T12:38:23;98184.50;;;9.95;79.72
71948;BME280;63257;55.082;38.772;2023-03-26T12:41:12;98175.88;;;9.82;79.08
71948;BME280;63257;55.082;38.772;2023-03-26T12:43:43;98172.06;;;9.63;79.35
71948;BME280;63257;55.082;38.772;2023-03-26T12:48:50;98158.66;;;9.55;78.05
71948;BME280;63257;55.082;38.772;2023-03-26T12:54:01;98160.28;;;9.45;77.62
71948;BME280;63257;55.082;38.772;2023-03-26T12:59:37;98180.91;;;9.51;76.79
71948;BME280;63257;55.082;38.772;2023-03-26T13:08:47;98167.47;;;9.31;77.74
71948;BME280;63257;55.082;38.772;2023-03-26T13:14:10;98177.53;;;9.38;77.28
71948;BME280;63257;55.082;38.772;2023-03-26T13:19:27;98158.69;;;9.08;77.75
71948;BME280;63257;55.082;38.772;2023-03-26T13:30:01;98162.63;;;9.03;78.42
71948;BME280;63257;55.082;38.772;2023-03-26T13:38:24;98165.72;;;8.96;79.17
71948;BME280;63257;55.082;38.772;2023-03-26T13:46:43;98167.13;;;8.89;79.00
71948;BME280;63257;55.082;38.772;2023-03-26T13:53:50;98144.00;;;8.70;80.06
71948;BME280;63257;55.082;38.772;2023-03-26T14:00:48;98158.19;;;8.68;80.60
71948;BME280;63257;55.082;38.772;2023-03-26T14:08:55;98153.50;;;8.60;80.29
71948;BME280;63257;55.082;38.772;2023-03-26T14:45:26;98154.50;;;8.70;81.48
71948;BME280;63257;55.082;38.772;2023-03-26T14:51:27;98160.13;;;8.65;82.12
71948;BME280;63257;55.082;38.772;2023-03-26T14:54:03;98166.31;;;8.64;82.13
71948;BME280;63257;55.082;38.772;2023-03-26T15:31:00;98139.75;;;8.43;82.92
71948;BME280;63257;55.082;38.772;2023-03-26T15:36:21;98134.22;;;8.35;82.80
71948;BME280;63257;55.082;38.772;2023-03-26T15:55:33;98140.84;;;8.17;83.58
71948;BME280;63257;55.082;38.772;2023-03-26T16:01:34;98143.63;;;8.26;83.75
71948;BME280;63257;55.082;38.772;2023-03-26T16:04:21;98148.66;;;8.29;83.22
71948;BME280;63257;55.082;38.772;2023-03-26T16:06:38;98122.22;;;8.20;83.25
71948;BME280;63257;55.082;38.772;2023-03-26T16:12:28;98137.44;;;8.27;83.08
71948;BME280;63257;55.082;38.772;2023-03-26T16:15:18;98145.09;;;8.30;83.20
71948;BME280;63257;55.082;38.772;2023-03-26T16:20:49;98140.31;;;8.24;83.08
71948;BME280;63257;55.082;38.772;2023-03-26T16:23:26;98104.47;;;7.86;83.64
71948;BME280;63257;55.082;38.772;2023-03-26T16:28:34;98148.09;;;8.13;84.44
71948;BME280;63257;55.082;38.772;2023-03-26T16:41:54;98136.38;;;8.30;83.29
71948;BME280;63257;55.082;38.772;2023-03-26T16:45:27;98139.56;;;8.22;83.41
71948;BME280;63257;55.082;38.772;2023-03-26T16:47:31;98144.97;;;8.32;83.35
71948;BME280;63257;55.082;38.772;2023-03-26T16:56:01;98144.88;;;8.33;83.18
71948;BME280;63257;55.082;38.772;2023-03-26T16:58:26;98138.78;;;8.33;83.08
71948;BME280;63257;55.082;38.772;2023-03-26T17:01:10;98139.94;;;8.29;83.67
71948;BME280;63257;55.082;38.772;2023-03-26T17:06:22;98143.09;;;8.34;83.85
71948;BME280;63257;55.082;38.772;2023-03-26T17:11:59;98148.34;;;8.34;83.28
71948;BME280;63257;55.082;38.772;2023-03-26T17:17:51;98139.59;;;8.33;83.14
71948;BME280;63257;55.082;38.772;2023-03-26T17:20:28;98134.22;;;8.35;83.16
71948;BME280;63257;55.082;38.772;2023-03-26T17:25:39;98139.41;;;8.37;83.11
71948;BME280;63257;55.082;38.772;2023-03-26T17:33:36;98106.78;;;8.15;82.83
71948;BME280;63257;55.082;38.772;2023-03-26T17:41:05;98120.88;;;8.14;83.35
71948;BME280;63257;55.082;38.772;2023-03-26T17:43:38;98136.31;;;8.19;83.46
71948;BME280;63257;55.082;38.772;2023-03-26T17:50:13;98135.19;;;8.10;84.72
71948;BME280;63257;55.082;38.772;2023-03-26T17:52:56;98133.06;;;8.15;83.86
71948;BME280;63257;55.082;38.772;2023-03-26T17:55:29;98125.41;;;8.12;83.95
71948;BME280;63257;55.082;38.772;2023-03-26T17:57:59;98126.13;;;8.14;84.03
71948;BME280;63257;55.082;38.772;2023-03-26T18:00:40;98125.41;;;8.12;83.83
71948;BME280;63257;55.082;38.772;2023-03-26T18:03:21;98127.19;;;8.11;84.23
71948;BME280;63257;55.082;38.772;2023-03-26T18:05:52;98098.47;;;7.97;84.90
71948;BME280;63257;55.082;38.772;2023-03-26T18:08:32;98114.91;;;8.12;84.63
71948;BME280;63257;55.082;38.772;2023-03-26T18:11:58;98117.41;;;8.13;84.34
71948;BME280;63257;55.082;38.772;2023-03-26T18:14:08;98117.19;;;8.17;84.72
71948;BME280;63257;55.082;38.772;2023-03-26T18:16:45;98098.16;;;8.13;84.16
71948;BME280;63257;55.082;38.772;2023-03-26T18:19:20;98101.06;;;8.21;84.07
71948;BME280;63257;55.082;38.772;2023-03-26T18:21:49;98099.63;;;8.17;83.96
71948;BME280;63257;55.082;38.772;2023-03-26T18:24:28;98093.59;;;8.04;83.61
71948;BME280;63257;55.082;38.772;2023-03-26T18:27:05;98114.06;;;8.11;84.61
71948;BME280;63257;55.082;38.772;2023-03-26T18:29:34;98098.50;;;8.08;84.10
71948;BME280;63257;55.082;38.772;2023-03-26T18:32:15;98095.94;;;7.95;84.69
71948;BME280;63257;55.082;38.772;2023-03-26T18:34:52;98095.72;;;7.98;85.15
71948;BME280;63257;55.082;38.772;2023-03-26T18:41:49;98106.53;;;7.94;84.98
71948;BME280;63257;55.082;38.772;2023-03-26T18:44:17;98101.63;;;7.89;86.17
71948;BME280;63257;55.082;38.772;2023-03-26T18:46:44;98101.41;;;7.92;85.10
71948;BME280;63257;55.082;38.772;2023-03-26T18:49:12;98108.00;;;7.98;84.90
71948;BME280;63257;55.082;38.772;2023-03-26T18:51:41;98097.00;;;7.93;84.68
71948;BME280;63257;55.082;38.772;2023-03-26T18:54:20;98076.19;;;7.90;85.16
71948;BME280;63257;55.082;38.772;2023-03-26T18:56:47;98091.91;;;8.03;86.10
71948;BME280;63257;55.082;38.772;2023-03-26T18:59:31;98103.25;;;8.03;84.88
71948;BME280;63257;55.082;38.772;2023-03-26T19:02:10;98084.25;;;8.00;84.62
71948;BME280;63257;55.082;38.772;2023-03-26T19:04:42;98102.44;;;8.03;84.28
71948;BME280;63257;55.082;38.772;2023-03-26T19:07:12;98093.69;;;8.02;84.35
71948;BME280;63257;55.082;38.772;2023-03-26T19:09:40;98098.16;;;8.13;84.57
71948;BME280;63257;55.082;38.772;2023-03-26T19:15:09;98090.75;;;8.07;84.75
71948;BME280;63257;55.082;38.772;2023-03-26T19:17:43;98083.00;;;7.92;84.66
71948;BME280;63257;55.082;38.772;2023-03-26T19:20:34;98094.16;;;7.96;84.56
71948;BME280;63257;55.082;38.772;2023-03-26T19:23:06;98098.63;;;8.07;84.60
71948;BME280;63257;55.082;38.772;2023-03-26T19:25:54;98095.50;;;8.02;84.43
71948;BME280;63257;55.082;38.772;2023-03-26T19:29:04;98086.03;;;7.99;84.33
71948;BME280;63257;55.082;38.772;2023-03-26T19:33:41;98082.69;;;7.97;84.55
71948;BME280;63257;55.082;38.772;2023-03-26T19:36:19;98056.25;;;7.87;84.27
71948;BME280;63257;55.082;38.772;2023-03-26T19:38:53;98068.66;;;7.85;84.77
71948;BME280;63257;55.082;38.772;2023-03-26T19:41:25;98076.09;;;7.91;84.68
71948;BME280;63257;55.082;38.772;2023-03-26T20:10:45;98064.78;;;7.78;85.76
71948;BME280;63257;55.082;38.772;2023-03-26T20:16:51;98062.47;;;7.73;85.66
71948;BME280;63257;55.082;38.772;2023-03-26T20:26:51;98057.44;;;7.83;85.77
71948;BME280;63257;55.082;38.772;2023-03-26T20:29:17;98054.06;;;7.81;85.86
71948;BME280;63257;55.082;38.772;2023-03-26T20:31:44;98059.94;;;7.85;85.52
71948;BME280;63257;55.082;38.772;2023-03-26T20:34:16;98055.00;;;7.80;85.62
71948;BME280;63257;55.082;38.772;2023-03-26T20:36:43;98052.81;;;7.74;86.04
71948;BME280;63257;55.082;38.772;2023-03-26T20:39:10;98043.38;;;7.71;85.90
71948;BME280;63257;55.082;38.772;2023-03-26T20:41:40;98038.91;;;7.60;86.00
71948;BME280;63257;55.082;38.772;2023-03-26T20:44:13;98049.34;;;7.73;86.08
71948;BME280;63257;55.082;38.772;2023-03-26T20:46:40;98057.78;;;7.66;86.09
71948;BME280;63257;55.082;38.772;2023-03-26T20:49:26;98056.63;;;7.70;86.43
71948;BME280;63257;55.082;38.772;2023-03-26T20:51:54;98050.44;;;7.71;86.13
71948;BME280;63257;55.082;38.772;2023-03-26T20:54:22;98044.25;;;7.59;86.44
71948;BME280;63257;55.082;38.772;2023-03-26T20:56:50;98050.84;;;7.64;86.45
71948;BME280;63257;55.082;38.772;2023-03-26T21:03:50;98051.50;;;7.68;86.80
71948;BME280;63257;55.082;38.772;2023-03-26T21:06:16;98049.91;;;7.66;86.64
71948;BME280;63257;55.082;38.772;2023-03-26T21:08:45;98057.03;;;7.63;87.12
71948;BME280;63257;55.082;38.772;2023-03-26T21:11:25;98053.72;;;7.61;87.44
71948;BME280;63257;55.082;38.772;2023-03-26T21:16:40;98053.38;;;7.66;87.34
71948;BME280;63257;55.082;38.772;2023-03-26T21:23:37;98051.97;;;7.73;87.13
71948;BME280;63257;55.082;38.772;2023-03-26T21:26:10;98032.75;;;7.73;87.15